sensor_id;sensor_type;location;lat;lon;timestamp;pressure;altitude;pressure_sealevel;temperature;humidity
35151;BME280;55720;51.972;4.624;2023-01-30T00:01:23;101174.38;;;7.23;100.00
35151;BME280;55720;51.972;4.624;2023-01-30T00:03:49;101155.16;;;7.28;100.00
35151;BME280;55720;51.972;4.624;2023-01-30T00:06:14;101151.63;;;7.28;100.00
35151;BME280;55720;51.972;4.624;2023-01-30T00:08:40;101150.22;;;7.30;100.00
35151;BME280;55720;51.972;4.624;2023-01-30T00:11:07;101135.63;;;7.35;100.00
35151;BME280;55720;51.972;4.624;2023-01-30T00:13:36;101131.50;;;7.37;100.00
35151;BME280;55720;51.972;4.624;2023-01-30T00:16:02;101104.69;;;7.39;100.00
35151;BME280;55720;51.972;4.624;2023-01-30T00:18:28;101092.63;;;7.40;100.00
35151;BME280;55720;51.972;4.624;2023-01-30T00:20:58;101084.03;;;7.47;100.00
35151;BME280;55720;51.972;4.624;2023-01-30T00:23:25;101077.84;;;7.41;100.00
35151;BME280;55720;51.972;4.624;2023-01-30T00:25:50;101085.25;;;7.41;100.00
35151;BME280;55720;51.972;4.624;2023-01-30T00:28:16;101069.66;;;7.41;100.00
35151;BME280;55720;51.972;4.624;2023-01-30T00:30:41;101046.69;;;7.42;100.00
35151;BME280;55720;51.972;4.624;2023-01-30T00:33:08;101041.56;;;7.41;100.00
35151;BME280;55720;51.972;4.624;2023-01-30T00:35:34;101043.34;;;7.46;100.00
35151;BME280;55720;51.972;4.624;2023-01-30T00:37:59;101008.03;;;7.49;100.00
35151;BME280;55720;51.972;4.624;2023-01-30T00:40:28;101022.31;;;7.46;100.00
35151;BME280;55720;51.972;4.624;2023-01-30T00:42:54;101019.91;;;7.45;100.00
35151;BME280;55720;51.972;4.624;2023-01-30T00:45:40;101023.72;;;7.43;100.00
35151;BME280;55720;51.972;4.624;2023-01-30T00:48:24;101023.44;;;7.45;100.00
35151;BME280;55720;51.972;4.624;2023-01-30T00:50:49;101008.97;;;7.45;100.00
35151;BME280;55720;51.972;4.624;2023-01-30T00:53:16;100999.16;;;7.43;100.00
35151;BME280;55720;51.972;4.624;2023-01-30T00:55:42;100986.72;;;7.37;100.00
35151;BME280;55720;51.972;4.624;2023-01-30T00:58:09;100976.00;;;7.41;100.00
35151;BME280;55720;51.972;4.624;2023-01-30T01:00:35;100980.22;;;7.47;100.00
35151;BME280;55720;51.972;4.624;2023-01-30T01:03:00;100981.84;;;7.48;100.00
35151;BME280;55720;51.972;4.624;2023-01-30T01:05:26;100967.38;;;7.48;100.00
35151;BME280;55720;51.972;4.624;2023-01-30T01:07:52;100966.06;;;7.45;100.00
35151;BME280;55720;51.972;4.624;2023-01-30T01:10:18;100947.72;;;7.46;100.00
35151;BME280;55720;51.972;4.624;2023-01-30T01:12:44;100925.50;;;7.38;100.00
35151;BME280;55720;51.972;4.624;2023-01-30T01:15:13;100910.44;;;7.41;100.00
35151;BME280;55720;51.972;4.624;2023-01-30T01:17:39;100911.34;;;7.36;100.00
35151;BME280;55720;51.972;4.624;2023-01-30T01:20:05;100907.31;;;7.34;100.00
35151;BME280;55720;51.972;4.624;2023-01-30T01:22:31;100910.53;;;7.36;100.00
35151;BME280;55720;51.972;4.624;2023-01-30T01:24:56;100893.47;;;7.30;100.00
35151;BME280;55720;51.972;4.624;2023-01-30T01:27:22;100891.84;;;7.29;100.00
35151;BME280;55720;51.972;4.624;2023-01-30T01:29:47;100896.03;;;7.27;100.00
35151;BME280;55720;51.972;4.624;2023-01-30T01:32:13;100909.34;;;7.28;100.00
35151;BME280;55720;51.972;4.624;2023-01-30T01:34:38;100898.13;;;7.30;100.00
35151;BME280;55720;51.972;4.624;2023-01-30T01:37:03;100911.16;;;7.33;100.00
35151;BME280;55720;51.972;4.624;2023-01-30T01:39:29;100911.16;;;7.33;100.00
35151;BME280;55720;51.972;4.624;2023-01-30T01:42:21;100914.81;;;7.28;100.00
35151;BME280;55720;51.972;4.624;2023-01-30T01:47:27;100922.72;;;7.30;100.00
35151;BME280;55720;51.972;4.624;2023-01-30T01:49:52;100913.38;;;7.31;100.00
35151;BME280;55720;51.972;4.624;2023-01-30T01:52:19;100925.13;;;7.31;100.00
35151;BME280;55720;51.972;4.624;2023-01-30T01:54:49;100921.91;;;7.29;100.00
35151;BME280;55720;51.972;4.624;2023-01-30T01:57:26;100914.53;;;7.30;100.00
35151;BME280;55720;51.972;4.624;2023-01-30T02:02:28;100913.56;;;7.12;100.00
35151;BME280;55720;51.972;4.624;2023-01-30T02:04:56;100920.22;;;7.06;100.00
35151;BME280;55720;51.972;4.624;2023-01-30T02:07:33;100927.41;;;7.02;100.00
35151;BME280;55720;51.972;4.624;2023-01-30T02:09:59;100914.72;;;6.98;100.00
35151;BME280;55720;51.972;4.624;2023-01-30T02:12:25;100910.16;;;6.93;100.00
35151;BME280;55720;51.972;4.624;2023-01-30T02:14:51;100908.66;;;6.87;100.00
35151;BME280;55720;51.972;4.624;2023-01-30T02:17:18;100917.13;;;6.85;100.00
35151;BME280;55720;51.972;4.624;2023-01-30T02:19:54;100914.22;;;6.82;100.00
35151;BME280;55720;51.972;4.624;2023-01-30T02:28:45;100914.50;;;6.80;100.00
35151;BME280;55720;51.972;4.624;2023-01-30T02:31:23;100921.28;;;6.83;100.00
35151;BME280;55720;51.972;4.624;2023-01-30T02:45:05;100900.72;;;6.99;100.00
35151;BME280;55720;51.972;4.624;2023-01-30T02:47:37;100899.34;;;7.02;100.00
35151;BME280;55720;51.972;4.624;2023-01-30T02:50:11;100890.19;;;7.06;100.00
35151;BME280;55720;51.972;4.624;2023-01-30T02:52:41;100880.59;;;7.09;100.00
35151;BME280;55720;51.972;4.624;2023-01-30T02:55:25;100869.34;;;7.10;100.00
35151;BME280;55720;51.972;4.624;2023-01-30T02:57:51;100873.19;;;7.09;100.00
35151;BME280;55720;51.972;4.624;2023-01-30T03:00:47;100877.25;;;7.12;100.00
35151;BME280;55720;51.972;4.624;2023-01-30T03:06:15;100870.47;;;7.09;100.00
35151;BME280;55720;51.972;4.624;2023-01-30T03:08:55;100871.16;;;7.15;100.00
35151;BME280;55720;51.972;4.624;2023-01-30T03:11:24;100865.09;;;7.18;100.00
35151;BME280;55720;51.972;4.624;2023-01-30T03:14:17;100863.66;;;7.20;100.00
35151;BME280;55720;51.972;4.624;2023-01-30T03:16:45;100864.16;;;7.22;100.00
35151;BME280;55720;51.972;4.624;2023-01-30T03:19:12;100852.63;;;7.25;100.00
35151;BME280;55720;51.972;4.624;2023-01-30T03:21:41;100847.84;;;7.31;100.00
35151;BME280;55720;51.972;4.624;2023-01-30T03:24:08;100846.09;;;7.35;100.00
35151;BME280;55720;51.972;4.624;2023-01-30T03:26:39;100849.97;;;7.34;100.00
35151;BME280;55720;51.972;4.624;2023-01-30T03:29:05;100843.38;;;7.35;100.00
35151;BME280;55720;51.972;4.624;2023-01-30T03:31:30;100847.91;;;7.39;100.00
35151;BME280;55720;51.972;4.624;2023-01-30T03:33:55;100835.06;;;7.40;100.00
35151;BME280;55720;51.972;4.624;2023-01-30T03:36:21;100837.78;;;7.40;100.00
35151;BME280;55720;51.972;4.624;2023-01-30T03:38:46;100838.09;;;7.38;100.00
35151;BME280;55720;51.972;4.624;2023-01-30T03:41:12;100824.44;;;7.38;100.00
35151;BME280;55720;51.972;4.624;2023-01-30T03:43:37;100835.06;;;7.40;100.00
35151;BME280;55720;51.972;4.624;2023-01-30T03:46:03;100832.63;;;7.38;100.00
35151;BME280;55720;51.972;4.624;2023-01-30T03:48:28;100823.13;;;7.36;100.00
35151;BME280;55720;51.972;4.624;2023-01-30T03:50:53;100828.78;;;7.39;100.00
35151;BME280;55720;51.972;4.624;2023-01-30T03:53:19;100822.22;;;7.40;100.00
35151;BME280;55720;51.972;4.624;2023-01-30T03:55:44;100812.88;;;7.41;100.00
35151;BME280;55720;51.972;4.624;2023-01-30T03:58:09;100825.75;;;7.41;100.00
35151;BME280;55720;51.972;4.624;2023-01-30T04:00:35;100813.09;;;7.45;100.00
35151;BME280;55720;51.972;4.624;2023-01-30T04:03:01;100823.88;;;7.50;100.00
35151;BME280;55720;51.972;4.624;2023-01-30T04:05:26;100818.72;;;7.49;100.00
35151;BME280;55720;51.972;4.624;2023-01-30T04:07:55;100826.41;;;7.47;100.00
35151;BME280;55720;51.972;4.624;2023-01-30T04:10:20;100812.09;;;7.41;100.00
35151;BME280;55720;51.972;4.624;2023-01-30T04:12:46;100812.69;;;7.38;100.00
35151;BME280;55720;51.972;4.624;2023-01-30T04:15:12;100819.75;;;7.30;100.00
35151;BME280;55720;51.972;4.624;2023-01-30T04:17:37;100831.25;;;7.27;100.00
35151;BME280;55720;51.972;4.624;2023-01-30T04:20:03;100843.44;;;7.21;100.00
35151;BME280;55720;51.972;4.624;2023-01-30T04:22:28;100844.06;;;7.18;100.00
35151;BME280;55720;51.972;4.624;2023-01-30T04:24:54;100838.69;;;7.13;100.00
35151;BME280;55720;51.972;4.624;2023-01-30T04:27:19;100838.41;;;7.15;100.00
35151;BME280;55720;51.972;4.624;2023-01-30T04:29:44;100840.44;;;7.09;100.00
35151;BME280;55720;51.972;4.624;2023-01-30T04:32:10;100849.56;;;7.05;100.00
35151;BME280;55720;51.972;4.624;2023-01-30T04:34:35;100851.31;;;7.01;100.00
35151;BME280;55720;51.972;4.624;2023-01-30T04:37:01;100842.03;;;6.88;100.00
35151;BME280;55720;51.972;4.624;2023-01-30T04:39:27;100848.72;;;6.82;100.00
35151;BME280;55720;51.972;4.624;2023-01-30T04:41:52;100857.59;;;6.87;100.00
35151;BME280;55720;51.972;4.624;2023-01-30T04:44:17;100858.81;;;6.81;100.00
35151;BME280;55720;51.972;4.624;2023-01-30T04:46:43;100858.63;;;6.78;100.00
35151;BME280;55720;51.972;4.624;2023-01-30T04:49:09;100858.72;;;6.73;100.00
35151;BME280;55720;51.972;4.624;2023-01-30T04:51:35;100864.38;;;6.90;100.00
35151;BME280;55720;51.972;4.624;2023-01-30T04:54:01;100857.81;;;7.13;100.00
35151;BME280;55720;51.972;4.624;2023-01-30T04:56:27;100881.41;;;7.31;100.00
35151;BME280;55720;51.972;4.624;2023-01-30T04:58:52;100892.09;;;7.41;100.00
35151;BME280;55720;51.972;4.624;2023-01-30T05:01:24;100904.09;;;7.54;100.00
35151;BME280;55720;51.972;4.624;2023-01-30T05:03:51;100930.13;;;7.52;100.00
35151;BME280;55720;51.972;4.624;2023-01-30T05:06:18;100923.03;;;7.51;100.00
35151;BME280;55720;51.972;4.624;2023-01-30T05:08:47;100937.00;;;7.49;100.00
35151;BME280;55720;51.972;4.624;2023-01-30T05:11:12;100961.91;;;7.48;100.00
35151;BME280;55720;51.972;4.624;2023-01-30T05:13:37;100963.75;;;7.38;100.00
35151;BME280;55720;51.972;4.624;2023-01-30T05:16:03;100977.75;;;7.23;100.00
35151;BME280;55720;51.972;4.624;2023-01-30T05:18:29;100987.56;;;7.11;100.00
35151;BME280;55720;51.972;4.624;2023-01-30T05:21:02;100987.28;;;7.12;100.00
35151;BME280;55720;51.972;4.624;2023-01-30T05:23:28;100989.22;;;6.98;100.00
35151;BME280;55720;51.972;4.624;2023-01-30T05:25:53;101001.34;;;6.92;100.00
35151;BME280;55720;51.972;4.624;2023-01-30T05:28:18;101013.34;;;6.91;100.00
35151;BME280;55720;51.972;4.624;2023-01-30T05:30:43;101016.91;;;6.78;100.00
35151;BME280;55720;51.972;4.624;2023-01-30T05:33:09;101014.78;;;6.75;100.00
35151;BME280;55720;51.972;4.624;2023-01-30T05:35:34;101008.03;;;6.72;100.00
35151;BME280;55720;51.972;4.624;2023-01-30T05:38:00;101020.66;;;6.68;100.00
35151;BME280;55720;51.972;4.624;2023-01-30T05:40:26;101013.44;;;6.59;100.00
35151;BME280;55720;51.972;4.624;2023-01-30T05:42:52;101022.13;;;6.47;100.00
35151;BME280;55720;51.972;4.624;2023-01-30T05:45:17;101026.78;;;6.47;100.00
35151;BME280;55720;51.972;4.624;2023-01-30T05:47:42;101023.72;;;6.48;100.00
35151;BME280;55720;51.972;4.624;2023-01-30T05:50:08;101025.34;;;6.35;100.00
35151;BME280;55720;51.972;4.624;2023-01-30T05:52:34;101024.09;;;6.28;100.00
35151;BME280;55720;51.972;4.624;2023-01-30T05:54:59;101007.75;;;6.28;100.00
35151;BME280;55720;51.972;4.624;2023-01-30T05:57:25;101010.53;;;6.23;100.00
35151;BME280;55720;51.972;4.624;2023-01-30T05:59:50;100993.91;;;6.24;100.00
35151;BME280;55720;51.972;4.624;2023-01-30T06:02:15;100993.47;;;6.17;100.00
35151;BME280;55720;51.972;4.624;2023-01-30T06:04:41;100978.34;;;6.25;100.00
35151;BME280;55720;51.972;4.624;2023-01-30T06:07:06;100979.16;;;6.25;100.00
35151;BME280;55720;51.972;4.624;2023-01-30T06:09:31;100986.31;;;6.08;100.00
35151;BME280;55720;51.972;4.624;2023-01-30T06:11:57;100981.22;;;6.01;100.00
35151;BME280;55720;51.972;4.624;2023-01-30T06:14:22;100969.22;;;6.02;100.00
35151;BME280;55720;51.972;4.624;2023-01-30T06:16:48;100984.75;;;6.02;100.00
35151;BME280;55720;51.972;4.624;2023-01-30T06:19:13;100983.13;;;6.01;100.00
35151;BME280;55720;51.972;4.624;2023-01-30T06:21:38;100976.97;;;5.95;100.00
35151;BME280;55720;51.972;4.624;2023-01-30T06:24:04;100977.66;;;6.01;100.00
35151;BME280;55720;51.972;4.624;2023-01-30T06:26:29;100993.81;;;5.97;100.00
35151;BME280;55720;51.972;4.624;2023-01-30T06:28:55;101007.38;;;6.02;100.00
35151;BME280;55720;51.972;4.624;2023-01-30T06:31:20;101036.25;;;6.03;100.00
35151;BME280;55720;51.972;4.624;2023-01-30T06:33:45;101050.16;;;6.02;100.00
35151;BME280;55720;51.972;4.624;2023-01-30T06:36:13;101059.38;;;6.06;100.00
35151;BME280;55720;51.972;4.624;2023-01-30T06:38:38;101068.16;;;6.03;100.00
35151;BME280;55720;51.972;4.624;2023-01-30T06:41:03;101104.63;;;6.07;100.00
35151;BME280;55720;51.972;4.624;2023-01-30T06:43:29;101110.44;;;6.00;100.00
35151;BME280;55720;51.972;4.624;2023-01-30T06:45:54;101136.13;;;5.94;100.00
35151;BME280;55720;51.972;4.624;2023-01-30T06:48:23;101145.94;;;5.95;100.00
35151;BME280;55720;51.972;4.624;2023-01-30T06:50:48;101161.25;;;5.91;100.00
35151;BME280;55720;51.972;4.624;2023-01-30T06:53:14;101163.22;;;5.85;100.00
35151;BME280;55720;51.972;4.624;2023-01-30T06:55:39;101203.75;;;5.92;100.00
35151;BME280;55720;51.972;4.624;2023-01-30T06:58:12;101239.09;;;5.97;100.00
35151;BME280;55720;51.972;4.624;2023-01-30T07:00:39;101253.41;;;5.84;100.00
35151;BME280;55720;51.972;4.624;2023-01-30T07:03:12;101264.66;;;5.77;100.00
35151;BME280;55720;51.972;4.624;2023-01-30T07:05:39;101286.13;;;5.84;100.00
35151;BME280;55720;51.972;4.624;2023-01-30T07:08:04;101310.69;;;5.79;100.00
35151;BME280;55720;51.972;4.624;2023-01-30T07:10:30;101312.38;;;5.75;100.00
35151;BME280;55720;51.972;4.624;2023-01-30T07:12:56;101321.31;;;5.80;100.00
35151;BME280;55720;51.972;4.624;2023-01-30T07:15:22;101327.00;;;5.84;100.00
35151;BME280;55720;51.972;4.624;2023-01-30T07:17:47;101335.75;;;5.81;100.00
35151;BME280;55720;51.972;4.624;2023-01-30T07:20:13;101340.75;;;5.69;100.00
35151;BME280;55720;51.972;4.624;2023-01-30T07:22:38;101359.91;;;5.64;100.00
35151;BME280;55720;51.972;4.624;2023-01-30T07:25:04;101347.88;;;5.65;100.00
35151;BME280;55720;51.972;4.624;2023-01-30T07:27:29;101365.25;;;5.74;100.00
35151;BME280;55720;51.972;4.624;2023-01-30T07:29:55;101366.06;;;5.74;100.00
35151;BME280;55720;51.972;4.624;2023-01-30T07:32:20;101357.25;;;5.82;100.00
35151;BME280;55720;51.972;4.624;2023-01-30T07:34:46;101370.88;;;5.82;100.00
35151;BME280;55720;51.972;4.624;2023-01-30T07:37:12;101367.28;;;5.92;100.00
35151;BME280;55720;51.972;4.624;2023-01-30T07:39:38;101374.88;;;5.95;100.00
35151;BME280;55720;51.972;4.624;2023-01-30T07:42:03;101369.06;;;6.02;100.00
35151;BME280;55720;51.972;4.624;2023-01-30T07:44:29;101372.41;;;5.93;100.00
35151;BME280;55720;51.972;4.624;2023-01-30T07:46:54;101381.19;;;5.90;100.00
35151;BME280;55720;51.972;4.624;2023-01-30T07:49:19;101383.94;;;5.85;100.00
35151;BME280;55720;51.972;4.624;2023-01-30T07:51:45;101368.59;;;5.94;100.00
35151;BME280;55720;51.972;4.624;2023-01-30T07:54:11;101380.31;;;5.95;100.00
35151;BME280;55720;51.972;4.624;2023-01-30T07:56:56;101378.94;;;5.98;100.00
35151;BME280;55720;51.972;4.624;2023-01-30T07:59:21;101384.03;;;6.04;100.00
35151;BME280;55720;51.972;4.624;2023-01-30T08:01:47;101377.22;;;6.07;100.00
35151;BME280;55720;51.972;4.624;2023-01-30T08:04:12;101391.66;;;6.07;100.00
35151;BME280;55720;51.972;4.624;2023-01-30T08:06:37;101396.28;;;6.07;100.00
35151;BME280;55720;51.972;4.624;2023-01-30T08:09:04;101404.06;;;6.18;100.00
35151;BME280;55720;51.972;4.624;2023-01-30T08:11:30;101413.63;;;6.16;100.00
35151;BME280;55720;51.972;4.624;2023-01-30T08:13:55;101408.94;;;6.21;100.00
35151;BME280;55720;51.972;4.624;2023-01-30T08:16:20;101409.34;;;6.33;100.00
35151;BME280;55720;51.972;4.624;2023-01-30T08:18:46;101408.44;;;6.43;100.00
35151;BME280;55720;51.972;4.624;2023-01-30T08:21:13;101412.44;;;6.51;100.00
35151;BME280;55720;51.972;4.624;2023-01-30T08:23:38;101420.06;;;6.49;100.00
35151;BME280;55720;51.972;4.624;2023-01-30T08:26:04;101415.72;;;6.48;100.00
35151;BME280;55720;51.972;4.624;2023-01-30T08:28:30;101437.22;;;6.54;100.00
35151;BME280;55720;51.972;4.624;2023-01-30T08:30:56;101445.91;;;6.56;100.00
35151;BME280;55720;51.972;4.624;2023-01-30T08:33:22;101464.13;;;6.61;100.00
35151;BME280;55720;51.972;4.624;2023-01-30T08:35:48;101457.81;;;6.65;100.00
35151;BME280;55720;51.972;4.624;2023-01-30T08:38:14;101464.59;;;6.68;100.00
35151;BME280;55720;51.972;4.624;2023-01-30T08:40:39;101475.44;;;6.73;100.00
35151;BME280;55720;51.972;4.624;2023-01-30T08:43:05;101492.88;;;6.77;100.00
35151;BME280;55720;51.972;4.624;2023-01-30T08:45:31;101509.47;;;6.80;100.00
35151;BME280;55720;51.972;4.624;2023-01-30T08:48:00;101524.97;;;6.85;100.00
35151;BME280;55720;51.972;4.624;2023-01-30T08:50:27;101535.84;;;6.90;100.00
35151;BME280;55720;51.972;4.624;2023-01-30T08:52:53;101541.91;;;6.87;100.00
35151;BME280;55720;51.972;4.624;2023-01-30T08:55:18;101543.31;;;7.03;100.00
35151;BME280;55720;51.972;4.624;2023-01-30T08:57:45;101542.31;;;7.18;100.00
35151;BME280;55720;51.972;4.624;2023-01-30T09:00:10;101555.94;;;7.41;100.00
35151;BME280;55720;51.972;4.624;2023-01-30T09:02:36;101559.34;;;7.71;100.00
35151;BME280;55720;51.972;4.624;2023-01-30T09:05:03;101577.81;;;7.60;100.00
35151;BME280;55720;51.972;4.624;2023-01-30T09:07:28;101584.31;;;7.64;100.00
35151;BME280;55720;51.972;4.624;2023-01-30T09:09:54;101597.63;;;7.52;100.00
35151;BME280;55720;51.972;4.624;2023-01-30T09:12:20;101617.09;;;7.46;100.00
35151;BME280;55720;51.972;4.624;2023-01-30T09:14:45;101626.75;;;7.38;100.00
35151;BME280;55720;51.972;4.624;2023-01-30T09:17:11;101636.41;;;7.30;100.00
35151;BME280;55720;51.972;4.624;2023-01-30T09:19:36;101627.75;;;7.47;100.00
35151;BME280;55720;51.972;4.624;2023-01-30T09:22:03;101634.97;;;7.57;100.00
35151;BME280;55720;51.972;4.624;2023-01-30T09:24:28;101643.78;;;7.54;100.00
35151;BME280;55720;51.972;4.624;2023-01-30T09:26:55;101641.91;;;7.49;100.00
35151;BME280;55720;51.972;4.624;2023-01-30T09:29:23;101653.59;;;7.31;100.00
35151;BME280;55720;51.972;4.624;2023-01-30T09:31:49;101659.38;;;7.29;100.00
35151;BME280;55720;51.972;4.624;2023-01-30T09:34:14;101650.91;;;7.50;100.00
35151;BME280;55720;51.972;4.624;2023-01-30T09:36:40;101662.44;;;7.70;100.00
35151;BME280;55720;51.972;4.624;2023-01-30T09:39:07;101659.84;;;7.79;100.00
35151;BME280;55720;51.972;4.624;2023-01-30T09:47:43;101700.47;;;7.67;100.00
35151;BME280;55720;51.972;4.624;2023-01-30T09:53:05;101703.72;;;7.69;100.00
35151;BME280;55720;51.972;4.624;2023-01-30T09:55:37;101689.03;;;7.83;100.00
35151;BME280;55720;51.972;4.624;2023-01-30T09:58:03;101694.09;;;7.71;100.00
35151;BME280;55720;51.972;4.624;2023-01-30T10:00:36;101704.13;;;7.81;100.00
35151;BME280;55720;51.972;4.624;2023-01-30T10:05:51;101729.25;;;7.83;100.00
35151;BME280;55720;51.972;4.624;2023-01-30T10:16:34;101756.28;;;7.84;100.00
35151;BME280;55720;51.972;4.624;2023-01-30T10:19:25;101758.09;;;7.94;100.00
35151;BME280;55720;51.972;4.624;2023-01-30T10:22:07;101755.13;;;7.90;100.00
35151;BME280;55720;51.972;4.624;2023-01-30T10:27:49;101776.31;;;7.80;100.00
35151;BME280;55720;51.972;4.624;2023-01-30T10:30:17;101774.28;;;7.67;100.00
35151;BME280;55720;51.972;4.624;2023-01-30T10:32:57;101780.28;;;7.64;100.00
35151;BME280;55720;51.972;4.624;2023-01-30T10:35:30;101774.66;;;7.79;100.00
35151;BME280;55720;51.972;4.624;2023-01-30T10:40:56;101774.06;;;8.29;100.00
35151;BME280;55720;51.972;4.624;2023-01-30T10:43:31;101782.94;;;8.40;100.00
35151;BME280;55720;51.972;4.624;2023-01-30T10:51:42;101815.94;;;8.06;100.00
35151;BME280;55720;51.972;4.624;2023-01-30T10:54:18;101791.34;;;8.01;100.00
35151;BME280;55720;51.972;4.624;2023-01-30T10:57:05;101806.34;;;8.04;100.00
35151;BME280;55720;51.972;4.624;2023-01-30T10:59:58;101805.69;;;8.17;100.00
35151;BME280;55720;51.972;4.624;2023-01-30T11:05:24;101820.22;;;8.12;100.00
35151;BME280;55720;51.972;4.624;2023-01-30T11:07:51;101815.50;;;7.94;100.00
35151;BME280;55720;51.972;4.624;2023-01-30T11:10:20;101806.72;;;7.97;100.00
35151;BME280;55720;51.972;4.624;2023-01-30T11:12:46;101801.88;;;7.89;100.00
35151;BME280;55720;51.972;4.624;2023-01-30T11:15:11;101797.53;;;7.88;100.00
35151;BME280;55720;51.972;4.624;2023-01-30T11:17:41;101799.19;;;8.08;100.00
35151;BME280;55720;51.972;4.624;2023-01-30T11:20:13;101782.78;;;8.08;100.00
35151;BME280;55720;51.972;4.624;2023-01-30T11:22:52;101791.88;;;8.03;100.00
35151;BME280;55720;51.972;4.624;2023-01-30T11:25:24;101800.38;;;8.02;100.00
35151;BME280;55720;51.972;4.624;2023-01-30T11:27:55;101773.13;;;8.15;100.00
35151;BME280;55720;51.972;4.624;2023-01-30T11:30:29;101788.56;;;8.06;100.00
35151;BME280;55720;51.972;4.624;2023-01-30T11:33:09;101791.34;;;8.01;100.00
35151;BME280;55720;51.972;4.624;2023-01-30T11:35:44;101783.63;;;8.08;100.00
35151;BME280;55720;51.972;4.624;2023-01-30T11:38:20;101793.13;;;7.92;100.00
35151;BME280;55720;51.972;4.624;2023-01-30T11:40:46;101798.81;;;7.72;100.00
35151;BME280;55720;51.972;4.624;2023-01-30T11:43:13;101798.22;;;7.75;100.00
35151;BME280;55720;51.972;4.624;2023-01-30T11:45:41;101785.31;;;8.04;100.00
35151;BME280;55720;51.972;4.624;2023-01-30T11:48:25;101779.09;;;7.99;100.00
35151;BME280;55720;51.972;4.624;2023-01-30T11:50:57;101773.09;;;7.97;100.00
35151;BME280;55720;51.972;4.624;2023-01-30T11:54:03;101786.28;;;7.89;100.00
35151;BME280;55720;51.972;4.624;2023-01-30T11:59:04;101775.72;;;8.25;100.00
35151;BME280;55720;51.972;4.624;2023-01-30T12:01:33;101775.72;;;8.49;100.00
35151;BME280;55720;51.972;4.624;2023-01-30T12:03:59;101788.00;;;8.52;100.00
35151;BME280;55720;51.972;4.624;2023-01-30T12:06:34;101792.03;;;8.54;100.00
35151;BME280;55720;51.972;4.624;2023-01-30T12:09:00;101796.28;;;8.65;100.00
35151;BME280;55720;51.972;4.624;2023-01-30T12:11:29;101809.34;;;8.68;100.00
35151;BME280;55720;51.972;4.624;2023-01-30T12:17:15;101847.53;;;8.41;100.00
35151;BME280;55720;51.972;4.624;2023-01-30T12:19:48;101835.91;;;8.30;100.00
35151;BME280;55720;51.972;4.624;2023-01-30T12:25:26;101826.75;;;8.77;100.00
35151;BME280;55720;51.972;4.624;2023-01-30T12:28:19;101827.44;;;8.88;100.00
35151;BME280;55720;51.972;4.624;2023-01-30T12:30:56;101843.63;;;8.84;100.00
35151;BME280;55720;51.972;4.624;2023-01-30T12:33:27;101840.75;;;8.57;100.00
35151;BME280;55720;51.972;4.624;2023-01-30T12:51:48;101860.03;;;8.47;100.00
35151;BME280;55720;51.972;4.624;2023-01-30T12:57:16;101866.56;;;8.27;100.00
35151;BME280;55720;51.972;4.624;2023-01-30T13:10:47;101873.09;;;8.31;100.00
35151;BME280;55720;51.972;4.624;2023-01-30T13:19:01;101879.31;;;8.61;100.00
35151;BME280;55720;51.972;4.624;2023-01-30T13:21:37;101895.22;;;8.35;100.00
35151;BME280;55720;51.972;4.624;2023-01-30T13:24:17;101901.44;;;8.40;100.00
35151;BME280;55720;51.972;4.624;2023-01-30T13:26:47;101901.53;;;8.54;100.00
35151;BME280;55720;51.972;4.624;2023-01-30T13:31:53;101920.94;;;8.58;100.00
35151;BME280;55720;51.972;4.624;2023-01-30T13:37:16;101929.94;;;8.82;100.00
35151;BME280;55720;51.972;4.624;2023-01-30T13:42:51;101937.00;;;9.25;100.00
35151;BME280;55720;51.972;4.624;2023-01-30T13:45:22;101952.53;;;8.93;100.00
35151;BME280;55720;51.972;4.624;2023-01-30T13:56:10;101958.69;;;8.61;100.00
35151;BME280;55720;51.972;4.624;2023-01-30T13:58:45;101960.75;;;8.69;100.00
35151;BME280;55720;51.972;4.624;2023-01-30T14:01:13;101954.66;;;8.77;100.00
35151;BME280;55720;51.972;4.624;2023-01-30T14:03:40;101968.16;;;8.68;100.00
35151;BME280;55720;51.972;4.624;2023-01-30T14:06:35;101984.13;;;8.61;100.00
35151;BME280;55720;51.972;4.624;2023-01-30T14:09:05;101999.09;;;8.45;100.00
35151;BME280;55720;51.972;4.624;2023-01-30T14:11:55;101995.91;;;8.62;100.00
35151;BME280;55720;51.972;4.624;2023-01-30T14:14:25;101985.63;;;8.72;100.00
35151;BME280;55720;51.972;4.624;2023-01-30T14:16:53;102000.00;;;8.64;100.00
35151;BME280;55720;51.972;4.624;2023-01-30T14:19:38;102013.72;;;8.35;100.00
35151;BME280;55720;51.972;4.624;2023-01-30T14:22:38;102022.78;;;8.31;100.00
35151;BME280;55720;51.972;4.624;2023-01-30T14:27:50;102030.44;;;8.29;100.00
35151;BME280;55720;51.972;4.624;2023-01-30T14:35:46;102034.53;;;8.26;100.00
35151;BME280;55720;51.972;4.624;2023-01-30T14:38:17;102056.03;;;8.09;100.00
35151;BME280;55720;51.972;4.624;2023-01-30T14:40:45;102054.75;;;8.02;100.00
35151;BME280;55720;51.972;4.624;2023-01-30T14:45:47;102062.47;;;7.89;100.00
35151;BME280;55720;51.972;4.624;2023-01-30T14:48:33;102072.84;;;7.92;100.00
35151;BME280;55720;51.972;4.624;2023-01-30T15:07:46;102080.66;;;7.70;100.00
35151;BME280;55720;51.972;4.624;2023-01-30T15:19:39;102067.88;;;7.61;100.00
35151;BME280;55720;51.972;4.624;2023-01-30T15:24:26;102082.16;;;7.48;100.00
35151;BME280;55720;51.972;4.624;2023-01-30T15:32:42;102092.13;;;7.18;100.00
35151;BME280;55720;51.972;4.624;2023-01-30T15:37:54;102083.38;;;7.16;100.00
35151;BME280;55720;51.972;4.624;2023-01-30T15:40:27;102074.84;;;7.33;100.00
35151;BME280;55720;51.972;4.624;2023-01-30T15:48:39;102085.06;;;7.02;100.00
35151;BME280;55720;51.972;4.624;2023-01-30T15:51:11;102082.84;;;7.09;100.00
35151;BME280;55720;51.972;4.624;2023-01-30T15:53:42;102086.66;;;7.13;100.00